Home > Products > Valid Products > TAF

000
FTUS43 KAPX 201125
TAFTVC
TAF
KTVC 201125Z 2012/2112 00000KT P6SM OVC024
     FM201500 VRB03KT P6SM OVC028
     FM210000 00000KT P6SM OVC026=



000
FTUS43 KAPX 201125
TAFAPN
TAF
KAPN 201125Z 2012/2112 00000KT P6SM SCT020
      TEMPO 2012/2013 BKN020
     FM201500 VRB03KT P6SM SCT200
     FM210000 00000KT P6SM SCT200=



000
FTUS43 KAPX 201125
TAFPLN
TAF
KPLN 201125Z 2012/2112 00000KT P6SM OVC022
     FM201500 VRB03KT P6SM OVC025
     FM210000 00000KT P6SM OVC022=



000
FTUS43 KAPX 200951 AAA
TAFPLN
TAF AMD
KPLN 200951Z 2010/2106 00000KT P6SM SCT022
      TEMPO 2011/2013 OVC022
     FM201500 VRB03KT P6SM OVC024
     FM210000 00000KT P6SM OVC022=



000
FTUS43 KAPX 200945 AAA
TAFAPN
TAF AMD
KAPN 200945Z 2010/2106 00000KT P6SM SCT015
      TEMPO 2011/2013 BKN015
     FM201500 VRB03KT P6SM SCT200
     FM210000 00000KT P6SM SCT200=



000
FTUS43 KAPX 200540
TAFAPN
TAF
KAPN 200540Z 2006/2106 00000KT P6SM SKC
     FM201500 VRB03KT P6SM SCT200
     FM210000 00000KT P6SM SCT200=



000
FTUS43 KAPX 200540
TAFPLN
TAF
KPLN 200540Z 2006/2106 00000KT P6SM SCT018
      TEMPO 2006/2009 BKN018
     FM200900 00000KT P6SM OVC015
     FM201500 VRB03KT P6SM OVC020
     FM210000 00000KT P6SM OVC015=



000
FTUS43 KAPX 200540
TAFTVC
TAF
KTVC 200540Z 2006/2106 00000KT P6SM OVC020
     FM200800 00000KT P6SM OVC018
     FM201500 VRB03KT P6SM OVC022
     FM210000 00000KT P6SM OVC018=



000
FTUS43 KAPX 200433 AAA
TAFAPN
TAF AMD
KAPN 200433Z 2005/2024 00000KT P6SM SKC
     FM201500 VRB03KT P6SM SCT200=



000
FTUS43 KAPX 200432 AAC
TAFPLN
TAF AMD
KPLN 200432Z 2005/2024 00000KT P6SM SKC
     FM200515 00000KT P6SM OVC018
     FM201400 VRB03KT P6SM OVC015=



000
FTUS43 KAPX 200327 AAB
TAFPLN
TAF AMD
KPLN 200327Z 2003/2024 00000KT P6SM SKC
      TEMPO 2003/2005 1 1/2SM BR
     FM200500 00000KT P6SM OVC018
     FM201400 VRB03KT P6SM OVC015=



000
FTUS43 KAPX 200036 AAA
TAFPLN
TAF AMD
KPLN 200036Z 2001/2024 00000KT P6SM SKC
      TEMPO 2001/2005 1 1/2SM BR
     FM200500 00000KT P6SM BKN018
     FM201400 VRB03KT P6SM OVC015=



000
FTUS43 KAPX 192339
TAFAPN
TAF
KAPN 192339Z 2000/2024 00000KT P6SM SKC
     FM201500 VRB03KT P6SM SCT012=



000
FTUS43 KAPX 192339
TAFPLN
TAF
KPLN 192339Z 2000/2024 00000KT P6SM SKC
     FM200600 00000KT P6SM BKN018
     FM201400 VRB03KT P6SM OVC015=



000
FTUS43 KAPX 192339
TAFTVC
TAF
KTVC 192339Z 2000/2024 00000KT P6SM OVC022
     FM200600 00000KT P6SM OVC018=



000
FTUS43 KAPX 191956 AAA
TAFTVC
TAF AMD
KTVC 191956Z 1920/2018 35003KT P6SM BKN020
     FM192200 34004KT P6SM SCT020
     FM200100 00000KT P6SM BKN018
     FM201200 15003KT P6SM BKN012=



000
FTUS43 KAPX 191956 AAA
TAFTVC
TAF AMD
KTVC 191956Z 1920/2018 35003KT P6SM BKN020
     FM192200 34004KT P6SM SCT020
     FM200100 00000KT P6SM BKN018
     FM201200 15003KT P6SM BKN012=



000
FTUS43 KAPX 191829 AAA
TAFAPN
TAF AMD
KAPN 191829Z 1918/2018 34004KT P6SM FEW015
     FM200000 00000KT P6SM SKC
     FM201700 15003KT P6SM SCT012=



000
FTUS43 KAPX 191739
TAFAPN
TAF
KAPN 191739Z 1918/2018 31003KT P6SM BKN015
     FM191900 34004KT P6SM FEW015
     FM200000 00000KT P6SM SKC
     FM201700 15003KT P6SM SCT012=



000
FTUS43 KAPX 191739
TAFPLN
TAF
KPLN 191739Z 1918/2018 VRB03KT P6SM FEW015
     FM200000 00000KT P6SM SKC
     FM200800 00000KT P6SM SCT015
     FM201200 15003KT P6SM BKN015=



000
FTUS43 KAPX 191739
TAFTVC
TAF
KTVC 191739Z 1918/2018 35003KT P6SM BKN022
     FM192000 34004KT P6SM SCT020
     FM200000 00000KT P6SM SCT020
     FM200300 00000KT P6SM BKN018
     FM201200 15003KT P6SM BKN012=



000
FTUS43 KAPX 191648 AAB
TAFAPN
TAF AMD
KAPN 191648Z 1917/2012 31003KT P6SM BKN015
     FM191800 34004KT P6SM SKC
     FM200000 00000KT P6SM SKC=



000
FTUS43 KAPX 191623 AAB
TAFTVC
TAF AMD
KTVC 191623Z 1916/2012 35003KT P6SM BKN022
     FM191900 34004KT P6SM SKC
     FM200000 00000KT P6SM SCT020
     FM200300 00000KT P6SM BKN018=



000
FTUS43 KAPX 191446 AAA
TAFAPN
TAF AMD
KAPN 191446Z 1915/2012 00000KT P6SM BKN015
     FM191600 34004KT P6SM SKC
     FM200000 00000KT P6SM SKC=



000
FTUS43 KAPX 191445 AAA
TAFTVC
TAF AMD
KTVC 191445Z 1915/2012 35003KT P6SM SCT022
     FM191700 34004KT P6SM SKC
     FM200000 00000KT P6SM SCT020
     FM200300 00000KT P6SM BKN018=



000
FTUS43 KAPX 191133
TAFPLN
TAF
KPLN 191133Z 1912/2012 VRB03KT P6SM SKC
     FM200000 00000KT P6SM SKC
     FM200800 00000KT P6SM SCT015=



000
FTUS43 KAPX 191133
TAFAPN
TAF
KAPN 191133Z 1912/2012 00000KT P6SM BKN015
     FM191400 34004KT P6SM SKC
     FM200000 00000KT P6SM SKC=



000
FTUS43 KAPX 191133
TAFTVC
TAF
KTVC 191133Z 1912/2012 00000KT P6SM OVC020
     FM191500 35003KT P6SM SCT022
     FM191700 34004KT P6SM SKC
     FM200000 00000KT P6SM SCT020
     FM200300 00000KT P6SM BKN018=



000
FTUS43 KAPX 191058 AAB
TAFAPN
TAF AMD
KAPN 191058Z 1911/2006 00000KT P6SM BKN015
     FM191300 34004KT P6SM SKC
     FM200000 00000KT P6SM SKC=



000
FTUS43 KAPX 191058 AAA
TAFTVC
TAF AMD
KTVC 191058Z 1911/2006 00000KT P6SM BKN018
     FM191400 36003KT P6SM SKC
     FM200000 00000KT P6SM SCT015=



000
FTUS43 KAPX 190950 AAA
TAFAPN
TAF AMD
KAPN 190950Z 1910/2006 00000KT P6SM SCT015
     FM191300 34004KT P6SM SKC
     FM200000 00000KT P6SM SKC=



000
FTUS43 KAPX 190950 AAA
TAFAPN
TAF AMD
KAPN 190950Z 1910/2006 00000KT P6SM SCT015
     FM191300 34004KT P6SM SKC
     FM200000 00000KT P6SM SKC=



000
FTUS43 KAPX 190544
TAFPLN
TAF
KPLN 190544Z 1906/2006 VRB03KT P6SM SKC
     FM200000 00000KT P6SM SKC=



000
FTUS43 KAPX 190544
TAFTVC
TAF
KTVC 190544Z 1906/2006 36003KT P6SM SKC
     FM200000 00000KT P6SM SCT015=



000
FTUS43 KAPX 190544
TAFAPN
TAF
KAPN 190544Z 1906/2006 34004KT P6SM SKC
     FM200000 00000KT P6SM SKC=



000
FTUS43 KAPX 182325
TAFTVC
TAF
KTVC 182325Z 1900/1924 36006KT P6SM FEW020
     FM190100 36003KT P6SM SKC=



000
FTUS43 KAPX 182325
TAFAPN
TAF
KAPN 182325Z 1900/1924 34004KT P6SM SKC
      TEMPO 1900/1902 SCT018=



000
FTUS43 KAPX 182325
TAFPLN
TAF
KPLN 182325Z 1900/1924 VRB03KT P6SM SKC=



000
FTUS43 KAPX 182115 AAC
TAFAPN
TAF AMD
KAPN 182115Z 1821/1918 34007KT P6SM OVC015
     FM182300 34005KT P6SM SKC=



000
FTUS43 KAPX 182010 AAB
TAFAPN
TAF AMD
KAPN 182010Z 1820/1918 34008KT P6SM OVC015
     FM182200 34007KT P6SM BKN040
     FM190000 35003KT P6SM SKC=



000
FTUS43 KAPX 182010 AAA
TAFTVC
TAF AMD
KTVC 182010Z 1820/1918 35005KT P6SM OVC018
     FM182100 35004KT P6SM SCT035
     FM190000 35003KT P6SM FEW035=



000
FTUS43 KAPX 181905 AAA
TAFAPN
TAF AMD
KAPN 181905Z 1819/1918 31008KT P6SM OVC015
     FM182100 34007KT P6SM BKN040
     FM182200 34006KT P6SM FEW035
     FM190000 35003KT P6SM SKC=



000
FTUS43 KAPX 181735
TAFTVC
TAF
KTVC 181735Z 1818/1918 03005KT P6SM OVC018
     FM181900 35004KT P6SM SCT035
     FM190000 35003KT P6SM FEW035=



000
FTUS43 KAPX 181735
TAFAPN
TAF
KAPN 181735Z 1818/1918 31008KT P6SM OVC015
     FM182000 34007KT P6SM BKN040
     FM182100 34006KT P6SM FEW035
     FM190000 35003KT P6SM SKC=



000
FTUS43 KAPX 181735
TAFPLN
TAF
KPLN 181735Z 1818/1918 VRB05KT P6SM SKC
     FM190000 35003KT P6SM SKC=



000
FTUS43 KAPX 181430 AAA
TAFPLN
TAF AMD
KPLN 181430Z 1815/1912 VRB05KT P6SM SKC
     FM190000 01003KT P6SM SKC=



000
FTUS43 KAPX 181120
TAFTVC
TAF
KTVC 181120Z 1812/1912 33005KT P6SM OVC015
     FM181700 35006KT P6SM BKN040
     FM182000 35004KT P6SM SCT035
     FM190000 02003KT P6SM FEW035=



000
FTUS43 KAPX 181120
TAFAPN
TAF
KAPN 181120Z 1812/1912 31008KT P6SM OVC015
     FM181600 34007KT P6SM BKN040
     FM181900 34006KT P6SM FEW035
     FM190000 01003KT P6SM SKC=



000
FTUS43 KAPX 181120
TAFPLN
TAF
KPLN 181120Z 1812/1912 34005KT P6SM OVC015
     FM181500 35005KT P6SM BKN040
     FM182000 35004KT P6SM SKC
     FM190000 01003KT P6SM SKC=



000
FTUS43 KAPX 181049 AAA
TAFPLN
TAF AMD
KPLN 181049Z 1811/1906 34008KT P6SM OVC015
     FM181400 36006KT P6SM OVC040
     FM181700 35005KT P6SM SKC
     FM190000 01003KT P6SM SKC=



000
FTUS43 KAPX 181049 AAA
TAFPLN
TAF AMD
KPLN 181049Z 1811/1906 34008KT P6SM OVC015
     FM181400 36006KT P6SM OVC040
     FM181700 35005KT P6SM SKC
     FM190000 01003KT P6SM SKC=



000
FTUS43 KAPX 180532
TAFTVC
TAF
KTVC 180532Z 1806/1906 34010KT P6SM -SHSN OVC014
     FM181400 35006KT P6SM OVC040
     FM181900 35004KT P6SM SCT035
     FM190000 02003KT P6SM FEW035=



000
FTUS43 KAPX 180532
TAFAPN
TAF
KAPN 180532Z 1806/1906 34008KT P6SM VCSH OVC014
     FM181400 34007KT P6SM SCT020 OVC040
     FM181900 34006KT P6SM FEW035
     FM190000 01003KT P6SM SKC=



000
FTUS43 KAPX 180532
TAFPLN
TAF
KPLN 180532Z 1806/1906 34008KT P6SM OVC015
     FM181100 36006KT P6SM OVC040
     FM181600 35005KT P6SM SKC
     FM190000 01003KT P6SM SKC=



000
FTUS43 KAPX 180147 AAA
TAFTVC
TAF AMD
KTVC 180147Z 1802/1824 32009KT 4SM -SHSN BKN015 OVC025
     FM181400 35006KT P6SM OVC030=



000
FTUS43 KAPX 180147 AAA
TAFTVC
TAF AMD
KTVC 180147Z 1802/1824 32009KT 4SM -SHSN BKN015 OVC025
     FM181400 35006KT P6SM OVC030=



000
FTUS43 KAPX 180147 AAA
TAFPLN
TAF AMD
KPLN 180147Z 1802/1824 34009KT P6SM OVC015
     FM181300 36006KT P6SM BKN030=



000
FTUS43 KAPX 180147 AAA
TAFPLN
TAF AMD
KPLN 180147Z 1802/1824 34009KT P6SM OVC015
     FM181300 36006KT P6SM BKN030=



000
FTUS43 KAPX 180146 AAA
TAFAPN
TAF AMD
KAPN 180146Z 1802/1824 32007KT P6SM VCSH SCT015 OVC025
     FM181400 34007KT P6SM OVC035=



000
FTUS43 KAPX 180146 AAA
TAFAPN
TAF AMD
KAPN 180146Z 1802/1824 32007KT P6SM VCSH SCT015 OVC025
     FM181400 34007KT P6SM OVC035=



000
FTUS43 KAPX 172320
TAFTVC
TAF
KTVC 172320Z 1800/1824 32008KT 4SM -SHSN SCT015 OVC025
     FM181400 35006KT P6SM OVC035=



000
FTUS43 KAPX 172320
TAFPLN
TAF
KPLN 172320Z 1800/1824 33007KT 3SM -SN SCT015 OVC025
     FM180100 34006KT P6SM OVC035
     FM181300 36006KT P6SM BKN040=



000
FTUS43 KAPX 172320
TAFAPN
TAF
KAPN 172320Z 1800/1824 31006KT 3SM -SN SCT015 OVC025
     FM180300 32005KT P6SM -SHSN OVC030
     FM181400 34007KT P6SM OVC035=



000
FTUS43 KAPX 172135 AAA
TAFAPN
TAF AMD
KAPN 172135Z 1722/1818 31008KT P6SM -SHSN BKN013 OVC040
     FM180000 32007KT 5SM -SHSN SCT015 OVC027
     FM180400 32005KT P6SM -SHSN OVC025=



000
FTUS43 KAPX 172132 AAA
TAFPLN
TAF AMD
KPLN 172132Z 1722/1818 32011KT 1 1/2SM -SHSN SCT015 OVC023
     FM180100 32008KT P6SM OVC025
     FM181300 33004KT P6SM BKN028=



000
FTUS43 KAPX 172130 AAB
TAFTVC
TAF AMD
KTVC 172130Z 1722/1818 29012KT 1 1/2SM -SN SCT012 OVC023
     FM180000 29011KT 4SM -SHSN SCT012 OVC025
     FM180500 32010KT 6SM -SHSN OVC022=



000
FTUS43 KAPX 171910 AAA
TAFTVC
TAF AMD
KTVC 171910Z 1719/1818 29012KT 3SM -SN OVC017
     FM172200 29011KT P6SM VCSH OVC018
     FM180100 32010KT P6SM OVC022=



000
FTUS43 KAPX 171728
TAFTVC
TAF
KTVC 171728Z 1718/1818 29012KT 3SM -SN BKN018 OVC029
      TEMPO 1718/1720 1SM -SN
     FM172000 29011KT P6SM VCSH OVC018
     FM180100 32010KT P6SM OVC022=



000
FTUS43 KAPX 171728
TAFAPN
TAF
KAPN 171728Z 1718/1818 30010KT 2SM -SN SCT009 OVC014
      TEMPO 1718/1721 1SM -SN
     FM172100 30009KT 2SM -SN OVC015
     FM180100 32005KT P6SM OVC015=



000
FTUS43 KAPX 171728
TAFPLN
TAF
KPLN 171728Z 1718/1818 30011KT P6SM SCT018 OVC045
      TEMPO 1719/1720 2SM -SN OVC018
     FM172000 31010KT 2SM -SN BKN015 OVC028
     FM180100 32008KT P6SM OVC025=



000
FTUS43 KAPX 171712 AAB
TAFAPN
TAF AMD
KAPN 171712Z 1717/1812 30010KT 2SM -SN SCT009 OVC014
      TEMPO 1717/1721 1SM -SN
     FM172100 30009KT 2SM -SN OVC015
     FM180100 32005KT P6SM OVC015=



000
FTUS43 KAPX 171518 AAA
TAFTVC
TAF AMD
KTVC 171518Z 1715/1812 29011KT 2SM -SN BKN014 OVC029
      TEMPO 1716/1719 3/4SM -SN OVC009
     FM180000 32010KT P6SM VCSH OVC012=



000
FTUS43 KAPX 171514 AAA
TAFPLN
TAF AMD
KPLN 171514Z 1715/1812 32009KT 1 1/2SM -SN SCT008 OVC015
     FM172100 34008KT P6SM OVC020
     FM180200 33005KT P6SM OVC015=



    US Dept of Commerce
    National Oceanic and Atmospheric Administration
    National Weather Service
    1325 East West Highway
    Silver Spring, MD 20910
    Page Author: NWS Internet Services Team
Disclaimer
Information Quality
Credits
Glossary
Privacy Policy
Freedom of Information Act (FOIA)
About Us
Career Opportunities